Coronel Carlos Ciriani Santa Rosa International Airport
SPTN : now visible

Airfield :











YOU CAN JOIN US ON...

 
LOGIN :

Register | Disclaimer

   EN    FR    IT 

 









Legend :    VFR   Marginal VFR   IFR   Intensive IFR   Very Intensive IFR
Visi :
Ceiling :
>= 8 km
>= 3000ft
5 to 8 km
1000 to 3000 ft
1500m to 5 km
500 to 1000 ft
800 to 1500m
200 to 500 ft
< 800m
< 200 ft
Symbols :   Thunderstorms  Fog  Heavy snow  Heavy precipitations  Wind > 20 kt






- Airport Elevation : 1538 ft
- IATA code : TCQ


SPTN - Coronel Carlos Ciriani Santa Rosa International

METAR N/A
TAF SPTN
Valid from the 24 at 18:00 until the 25 at 18:00 UTC


241705Z 2418/2518 20010KT CAVOK TX24/2419Z TN14/2510Z
FM242230 VRB03KT 9999 BKN025
FM251400 24007KT CAVOK
SPIM FIR / South America



MET'MAP, your aeronautical weather chart ! - Copyright ORBIFLY December 2007 - Disclaimer

ORBIFLY MET'MAP TEAM :

Programming & Development : Alexandra Zaïnal
Concept & original design : Baudouin d'Aumeries
Assistance for programming : Marc-Olivier Méhu
Technical & hardware support : Manuel Goepfert

Contact : metmap@orbifly.com




SOURCES & CREDITS :

   NOAA       Earth
Advisory